»·PEaware :: N136GH KYKM-74S

N136GH :: KYKM-74S

FLIGHT INFORMATION

Flight Status: Arrived
Operator: Privately registered:
United States
More flights under this callsign
Pilot: Gabor H. (24209)
Aircraft: BEECH AIRCRAFT BONANZA
(BE36)
More flights by this aircraft type
Origin: KYKM Yakima Air Term/Mcallister
United States
Destination: 74S Anacortes
United States
More flights between these airports :: More routes between these airports
Route: WENAS7 PERTT V298 BANDR T268 LEION
File this flight plan on PilotEdge
Remarks:
Altitude:
(Current/Filed)
10,000ft
Speed:
(Current/Filed)
160kts
Departed: 06-Apr-20 11:38 AM
Arrived: 06-Apr-20 12:48 PM
Distance/Time
Traveled:
144nm/1:10
Distance/Time
To Go:
Arrived

Flight Plot

Page will automatically refresh every two minutes.


Map Options




Map Legend


Flown Route
Filed Route
Departure Airport
Arrival Airport
Navaid (VOR, NDB)
Fix

Horizontal Profiles

Position Reports

Time Latitude Longitude Heading Altitude Ground
Speed
06-Apr-20 11:22 46.568103 -120.530812 197 1049ft 0kts
06-Apr-20 11:23 46.568103 -120.530812 197 1049ft 0kts
06-Apr-20 11:24 46.568103 -120.530812 197 1049ft 0kts
06-Apr-20 11:25 46.568103 -120.530812 197 1049ft 0kts
06-Apr-20 11:26 46.568103 -120.530812 197 1049ft 0kts
06-Apr-20 11:27 46.568103 -120.530812 197 1049ft 0kts
06-Apr-20 11:28 46.568103 -120.530812 197 1049ft 0kts
06-Apr-20 11:29 46.568103 -120.530812 197 1049ft 0kts
06-Apr-20 11:30 46.568103 -120.530812 197 1049ft 0kts
06-Apr-20 11:31 46.568103 -120.530812 197 1049ft 0kts
06-Apr-20 11:32 46.568103 -120.530812 197 1049ft 0kts
06-Apr-20 11:33 46.568103 -120.530812 197 1049ft 0kts
06-Apr-20 11:34 46.566403 -120.531501 181 1052ft 0kts
06-Apr-20 11:35 46.566403 -120.531501 181 1052ft 0kts
06-Apr-20 11:36 46.566403 -120.531501 181 1052ft 0kts
06-Apr-20 11:37 46.566712 -120.536374 291 1060ft 69kts
06-Apr-20 11:38 46.576806 -120.574177 286 1817ft 115kts
06-Apr-20 11:39 46.582685 -120.620942 275 2866ft 117kts
06-Apr-20 11:40 46.587520 -120.662770 310 4087ft 100kts
06-Apr-20 11:41 46.615227 -120.654262 17 4957ft 118kts
06-Apr-20 11:42 46.647112 -120.632171 27 5689ft 134kts
06-Apr-20 11:43 46.677445 -120.597444 42 6405ft 143kts
06-Apr-20 11:44 46.702633 -120.552467 26 7102ft 142kts
06-Apr-20 11:45 46.732242 -120.573488 320 7818ft 125kts
06-Apr-20 11:46 46.763332 -120.600357 325 8341ft 134kts
06-Apr-20 11:47 46.796253 -120.627096 326 8852ft 136kts
06-Apr-20 11:48 46.829171 -120.653819 326 9357ft 134kts
06-Apr-20 11:49 46.861636 -120.680217 325 9858ft 132kts
06-Apr-20 11:50 46.895674 -120.708005 327 9967ft 150kts
06-Apr-20 11:51 46.927665 -120.748088 322 9953ft 157kts
06-Apr-20 11:52 46.967186 -120.776430 332 9963ft 160kts
06-Apr-20 11:53 47.007855 -120.804228 333 9963ft 162kts
06-Apr-20 11:54 47.048492 -120.833102 330 9963ft 163kts
06-Apr-20 11:55 47.088385 -120.865587 330 9963ft 164kts
06-Apr-20 11:56 47.123714 -120.903335 295 9970ft 163kts
06-Apr-20 11:57 47.140403 -120.966075 290 9964ft 164kts
06-Apr-20 11:58 47.155087 -121.029554 289 9964ft 163kts
06-Apr-20 11:59 47.169527 -121.093385 289 9890ft 164kts
06-Apr-20 12:00 47.183676 -121.156318 290 9890ft 160kts
06-Apr-20 12:01 47.197561 -121.218239 290 9894ft 158kts
06-Apr-20 12:02 47.211188 -121.279123 290 9917ft 155kts
06-Apr-20 12:03 47.224630 -121.339425 290 9940ft 154kts
06-Apr-20 12:04 47.237947 -121.399354 290 9962ft 154kts
06-Apr-20 12:05 47.251261 -121.459453 290 9981ft 154kts
06-Apr-20 12:06 47.278456 -121.503881 328 9981ft 155kts
06-Apr-20 12:07 47.316788 -121.533646 331 9962ft 156kts
06-Apr-20 12:08 47.355620 -121.562034 331 9962ft 156kts
06-Apr-20 12:09 47.394551 -121.590230 331 9962ft 156kts
06-Apr-20 12:10 47.433516 -121.618443 331 9962ft 156kts
06-Apr-20 12:11 47.472257 -121.646504 331 9980ft 155kts
06-Apr-20 12:12 47.510779 -121.674510 330 9982ft 156kts
06-Apr-20 12:13 47.549753 -121.702860 330 9982ft 156kts
06-Apr-20 12:14 47.588689 -121.731228 330 9982ft 156kts
06-Apr-20 12:15 47.627750 -121.759736 330 9982ft 156kts
06-Apr-20 12:16 47.666789 -121.788276 330 9981ft 156kts
06-Apr-20 12:17 47.705910 -121.816938 330 9981ft 156kts
06-Apr-20 12:18 47.744859 -121.845518 331 9981ft 156kts
06-Apr-20 12:19 47.776150 -121.886813 302 9981ft 154kts
06-Apr-20 12:20 47.797982 -121.942015 300 9981ft 155kts
06-Apr-20 12:21 47.819025 -121.998004 300 9980ft 155kts
06-Apr-20 12:22 47.839868 -122.054064 300 9980ft 155kts
06-Apr-20 12:23 47.860724 -122.110351 300 9980ft 155kts
06-Apr-20 12:24 47.895943 -122.146086 328 9594ft 153kts
06-Apr-20 12:25 47.932360 -122.177038 329 9087ft 151kts
06-Apr-20 12:26 47.968924 -122.208031 329 8576ft 151kts
06-Apr-20 12:27 48.003435 -122.237297 329 8475ft 132kts
06-Apr-20 12:28 48.033950 -122.263251 329 8478ft 122kts
06-Apr-20 12:29 48.062921 -122.287919 329 8478ft 117kts
06-Apr-20 12:30 48.091022 -122.311899 329 8479ft 115kts
06-Apr-20 12:31 48.118161 -122.335068 329 8482ft 114kts
06-Apr-20 12:32 48.147527 -122.360148 330 8225ft 132kts
06-Apr-20 12:33 48.181926 -122.385732 336 7850ft 146kts
06-Apr-20 12:34 48.222549 -122.411160 336 7480ft 165kts
06-Apr-20 12:35 48.265724 -122.437567 336 7089ft 170kts
06-Apr-20 12:36 48.309883 -122.464040 336 6689ft 172kts
06-Apr-20 12:37 48.353846 -122.490216 336 6265ft 174kts
06-Apr-20 12:38 48.400066 -122.518344 336 5573ft 182kts
06-Apr-20 12:39 48.447147 -122.547724 336 4874ft 184kts
06-Apr-20 12:40 48.492886 -122.576832 339 4483ft 167kts
06-Apr-20 12:41 48.535841 -122.582418 15 3971ft 149kts
06-Apr-20 12:42 48.574470 -122.565435 359 2778ft 147kts
06-Apr-20 12:43 48.580553 -122.614798 225 1471ft 140kts
06-Apr-20 12:44 48.551590 -122.632595 200 1106ft 109kts
06-Apr-20 12:45 48.522754 -122.648768 203 651ft 112kts
06-Apr-20 12:46 48.500322 -122.661466 196 244ft 54kts
06-Apr-20 12:47 48.498429 -122.661208 17 249ft 4kts
06-Apr-20 12:48 48.498441 -122.660884 108 249ft 0kts

Navigation Log

Ident Type
Flight plan parsing failed, navigation log unavailable